RYR159M EDDK-LEPA
Flight info
| Callsign | RYR159M |
|---|---|
| Flight time | 1h 49m |
| Altitude | 37000 |
| Route | NVO2R NVO Y868 NAVAK Z283 SOPOK DCT ROUSY DCT GTQ DCT POGOL DCT LASAT DCT MOROK DCT GILIR DCT GEVEA DCT INCUS DCT BALSI DCT RETNO DCT TUPOX DCT MTG DCT DIVKO DCT VATIR DCT PIVUS DCT BODEQ DCT VERSO L129 LUNIK |
| Aircraft | A320/M-SDE3FGHIRWY/LB1 |
Departure
| Time | 2026-04-26 12:51 |
|---|---|
| Airport | Cologne Bonn Airport (EDDK) |
Arrival
| Time | 2026-04-26 14:41 |
|---|---|
| Airport | Palma de Mallorca Airport (LEPA) |
| Time | Latitude | Longitude | Altitude | Speed | Heading |
|---|---|---|---|---|---|
| 2026-04-26 12:10 | 50.87834 | 7.12452 | 235 ft | 0 kts | 288° |
| 2026-04-26 12:10 | 50.87833 | 7.12457 | 236 ft | 0 kts | 288° |
| 2026-04-26 12:38 | 50.87828 | 7.12482 | 235 ft | 4 kts | 287° |
| 2026-04-26 12:38 | 50.87819 | 7.12521 | 233 ft | 4 kts | 300° |
| 2026-04-26 12:39 | 50.87803 | 7.12553 | 234 ft | 4 kts | 332° |
| 2026-04-26 12:39 | 50.87783 | 7.12559 | 237 ft | 1 kts | 18° |
| 2026-04-26 12:39 | 50.87779 | 7.12557 | 236 ft | 0 kts | 18° |
| 2026-04-26 12:44 | 50.87780 | 7.12557 | 236 ft | 1 kts | 18° |
| 2026-04-26 12:44 | 50.87801 | 7.12592 | 236 ft | 8 kts | 67° |
| 2026-04-26 12:44 | 50.87769 | 7.12700 | 232 ft | 15 kts | 136° |
| 2026-04-26 12:44 | 50.87673 | 7.12835 | 232 ft | 22 kts | 137° |
| 2026-04-26 12:45 | 50.87548 | 7.13016 | 232 ft | 25 kts | 137° |
| 2026-04-26 12:45 | 50.87413 | 7.13211 | 232 ft | 27 kts | 137° |
| 2026-04-26 12:45 | 50.87270 | 7.13420 | 233 ft | 28 kts | 137° |
| 2026-04-26 12:45 | 50.87164 | 7.13574 | 237 ft | 19 kts | 137° |
| 2026-04-26 12:46 | 50.87070 | 7.13710 | 241 ft | 17 kts | 137° |
| 2026-04-26 12:46 | 50.86990 | 7.13827 | 244 ft | 16 kts | 137° |
| 2026-04-26 12:46 | 50.86905 | 7.13947 | 252 ft | 17 kts | 138° |
| 2026-04-26 12:46 | 50.86812 | 7.14079 | 255 ft | 21 kts | 139° |
| 2026-04-26 12:47 | 50.86709 | 7.14170 | 257 ft | 13 kts | 140° |
| 2026-04-26 12:47 | 50.86634 | 7.14279 | 261 ft | 17 kts | 138° |
| 2026-04-26 12:47 | 50.86532 | 7.14426 | 264 ft | 22 kts | 136° |
| 2026-04-26 12:47 | 50.86425 | 7.14585 | 271 ft | 20 kts | 137° |
| 2026-04-26 12:48 | 50.86325 | 7.14729 | 276 ft | 20 kts | 139° |
| 2026-04-26 12:48 | 50.86219 | 7.14880 | 282 ft | 21 kts | 137° |
| 2026-04-26 12:48 | 50.86103 | 7.15048 | 287 ft | 24 kts | 137° |
| 2026-04-26 12:48 | 50.85971 | 7.15237 | 295 ft | 27 kts | 137° |
| 2026-04-26 12:49 | 50.85833 | 7.15441 | 297 ft | 27 kts | 137° |
| 2026-04-26 12:49 | 50.85696 | 7.15641 | 301 ft | 27 kts | 137° |
| 2026-04-26 12:49 | 50.85559 | 7.15838 | 306 ft | 26 kts | 138° |
| 2026-04-26 12:49 | 50.85492 | 7.16001 | 308 ft | 15 kts | 75° |
| 2026-04-26 12:50 | 50.85563 | 7.16137 | 309 ft | 17 kts | 46° |
| 2026-04-26 12:50 | 50.85649 | 7.16282 | 308 ft | 19 kts | 47° |
| 2026-04-26 12:50 | 50.85686 | 7.16315 | 308 ft | 4 kts | 356° |
| 2026-04-26 12:50 | 50.85741 | 7.16248 | 307 ft | 32 kts | 317° |
| 2026-04-26 12:51 | 50.86107 | 7.15721 | 295 ft | 106 kts | 317° |
| 2026-04-26 12:51 | 50.86805 | 7.14714 | 272 ft | 162 kts | 318° |
| 2026-04-26 12:51 | 50.87644 | 7.13507 | 938 ft | 161 kts | 319° |
| 2026-04-26 12:51 | 50.88477 | 7.12303 | 1707 ft | 167 kts | 318° |
| 2026-04-26 12:52 | 50.89396 | 7.10972 | 2067 ft | 191 kts | 318° |
| 2026-04-26 12:52 | 50.90412 | 7.09496 | 2620 ft | 202 kts | 318° |
| 2026-04-26 12:52 | 50.91307 | 7.07810 | 3441 ft | 203 kts | 291° |
| 2026-04-26 12:52 | 50.91365 | 7.05554 | 3989 ft | 220 kts | 252° |
| 2026-04-26 12:53 | 50.90793 | 7.03172 | 4470 ft | 242 kts | 250° |
| 2026-04-26 12:53 | 50.90186 | 7.00555 | 5097 ft | 262 kts | 252° |
| 2026-04-26 12:53 | 50.89572 | 6.97804 | 5955 ft | 268 kts | 252° |
| 2026-04-26 12:53 | 50.88959 | 6.94992 | 6850 ft | 273 kts | 253° |
| 2026-04-26 12:54 | 50.88347 | 6.92133 | 7724 ft | 276 kts | 254° |
| 2026-04-26 12:54 | 50.87733 | 6.89234 | 8633 ft | 279 kts | 254° |
| 2026-04-26 12:54 | 50.87112 | 6.86304 | 9517 ft | 283 kts | 255° |
| 2026-04-26 12:54 | 50.86479 | 6.83336 | 10384 ft | 287 kts | 255° |
| 2026-04-26 12:55 | 50.85825 | 6.80245 | 10784 ft | 308 kts | 254° |
| 2026-04-26 12:55 | 50.85121 | 6.76913 | 11112 ft | 329 kts | 254° |
| 2026-04-26 12:55 | 50.84379 | 6.73446 | 11763 ft | 336 kts | 253° |
| 2026-04-26 12:55 | 50.83619 | 6.69922 | 12539 ft | 340 kts | 253° |
| 2026-04-26 12:56 | 50.82857 | 6.66363 | 13323 ft | 343 kts | 255° |
| 2026-04-26 12:56 | 50.82368 | 6.62664 | 14086 ft | 345 kts | 266° |
| 2026-04-26 12:56 | 50.82326 | 6.58866 | 14763 ft | 347 kts | 272° |
| 2026-04-26 12:56 | 50.82382 | 6.55035 | 15430 ft | 350 kts | 272° |
| 2026-04-26 12:57 | 50.82434 | 6.51171 | 16107 ft | 353 kts | 272° |
| 2026-04-26 12:57 | 50.82485 | 6.47267 | 16775 ft | 357 kts | 272° |
| 2026-04-26 12:57 | 50.82535 | 6.43325 | 17438 ft | 360 kts | 271° |
| 2026-04-26 12:58 | 50.82572 | 6.35386 | 18712 ft | 367 kts | 264° |
| 2026-04-26 12:58 | 50.81923 | 6.31471 | 19253 ft | 373 kts | 246° |
| 2026-04-26 12:58 | 50.80477 | 6.28050 | 19818 ft | 379 kts | 227° |
| 2026-04-26 12:58 | 50.78353 | 6.25554 | 20367 ft | 386 kts | 207° |
| 2026-04-26 12:59 | 50.75723 | 6.24338 | 20918 ft | 395 kts | 187° |
| 2026-04-26 12:59 | 50.72965 | 6.24606 | 21458 ft | 402 kts | 172° |
| 2026-04-26 12:59 | 50.70200 | 6.25376 | 21988 ft | 406 kts | 171° |
| 2026-04-26 12:59 | 50.67444 | 6.26158 | 22490 ft | 410 kts | 171° |
| 2026-04-26 13:00 | 50.64620 | 6.26958 | 22996 ft | 415 kts | 171° |
| 2026-04-26 13:00 | 50.61763 | 6.27762 | 23497 ft | 419 kts | 171° |
| 2026-04-26 13:00 | 50.58884 | 6.28569 | 23966 ft | 422 kts | 171° |
| 2026-04-26 13:00 | 50.55977 | 6.29380 | 24383 ft | 425 kts | 172° |
| 2026-04-26 13:01 | 50.53051 | 6.30191 | 24797 ft | 428 kts | 172° |
| 2026-04-26 13:01 | 50.50107 | 6.31007 | 25199 ft | 431 kts | 172° |
| 2026-04-26 13:01 | 50.47144 | 6.31828 | 25589 ft | 434 kts | 172° |
| 2026-04-26 13:01 | 50.44155 | 6.32654 | 25935 ft | 438 kts | 172° |
| 2026-04-26 13:02 | 50.41145 | 6.33484 | 26305 ft | 441 kts | 172° |
| 2026-04-26 13:02 | 50.38116 | 6.34320 | 26686 ft | 443 kts | 172° |
| 2026-04-26 13:02 | 50.35070 | 6.35157 | 27065 ft | 446 kts | 172° |
| 2026-04-26 13:02 | 50.32006 | 6.35994 | 27425 ft | 448 kts | 172° |
| 2026-04-26 13:03 | 50.28927 | 6.36838 | 27797 ft | 451 kts | 172° |
| 2026-04-26 13:03 | 50.25829 | 6.37689 | 28154 ft | 453 kts | 172° |
| 2026-04-26 13:03 | 50.22713 | 6.38538 | 28477 ft | 456 kts | 172° |
| 2026-04-26 13:03 | 50.19579 | 6.39392 | 28799 ft | 459 kts | 172° |
| 2026-04-26 13:04 | 50.16423 | 6.40256 | 29138 ft | 462 kts | 172° |
| 2026-04-26 13:04 | 50.13253 | 6.41127 | 29469 ft | 464 kts | 172° |
| 2026-04-26 13:04 | 50.10068 | 6.42001 | 29847 ft | 464 kts | 172° |
| 2026-04-26 13:04 | 50.06883 | 6.42872 | 30217 ft | 465 kts | 172° |
| 2026-04-26 13:05 | 50.03692 | 6.43741 | 30496 ft | 467 kts | 172° |
| 2026-04-26 13:05 | 50.00488 | 6.44605 | 30737 ft | 468 kts | 172° |
| 2026-04-26 13:05 | 49.97266 | 6.45471 | 30973 ft | 470 kts | 172° |
| 2026-04-26 13:05 | 49.94037 | 6.46337 | 31217 ft | 472 kts | 172° |
| 2026-04-26 13:06 | 49.90799 | 6.47208 | 31466 ft | 473 kts | 172° |
| 2026-04-26 13:06 | 49.87560 | 6.48079 | 31794 ft | 472 kts | 172° |
| 2026-04-26 13:06 | 49.84330 | 6.48950 | 32142 ft | 470 kts | 172° |
| 2026-04-26 13:06 | 49.81111 | 6.49822 | 32484 ft | 469 kts | 172° |
| 2026-04-26 13:07 | 49.77898 | 6.50691 | 32813 ft | 468 kts | 172° |
| 2026-04-26 13:07 | 49.74692 | 6.51556 | 33128 ft | 467 kts | 172° |
| 2026-04-26 13:07 | 49.71492 | 6.52413 | 33462 ft | 466 kts | 172° |
| 2026-04-26 13:07 | 49.68297 | 6.53266 | 33811 ft | 465 kts | 172° |
| 2026-04-26 13:08 | 49.65112 | 6.54119 | 34154 ft | 464 kts | 172° |
| 2026-04-26 13:08 | 49.61933 | 6.54968 | 34456 ft | 463 kts | 172° |
| 2026-04-26 13:08 | 49.58763 | 6.55814 | 34732 ft | 462 kts | 172° |
| 2026-04-26 13:08 | 49.55594 | 6.56656 | 34981 ft | 462 kts | 172° |
| 2026-04-26 13:09 | 49.52427 | 6.57499 | 35229 ft | 462 kts | 172° |
| 2026-04-26 13:09 | 49.49265 | 6.58338 | 35473 ft | 461 kts | 172° |
| 2026-04-26 13:09 | 49.46100 | 6.59173 | 35707 ft | 461 kts | 172° |
| 2026-04-26 13:09 | 49.42940 | 6.60004 | 35951 ft | 461 kts | 173° |
| 2026-04-26 13:10 | 49.39780 | 6.60834 | 36180 ft | 460 kts | 173° |
| 2026-04-26 13:10 | 49.36625 | 6.61664 | 36410 ft | 460 kts | 173° |
| 2026-04-26 13:10 | 49.33470 | 6.62496 | 36618 ft | 460 kts | 173° |
| 2026-04-26 13:10 | 49.30323 | 6.63328 | 36840 ft | 459 kts | 173° |
| 2026-04-26 13:11 | 49.27172 | 6.64161 | 37064 ft | 459 kts | 173° |
| 2026-04-26 13:11 | 49.24026 | 6.64995 | 37203 ft | 459 kts | 173° |
| 2026-04-26 13:11 | 49.17756 | 6.66645 | 37227 ft | 455 kts | 173° |
| 2026-04-26 13:12 | 49.12557 | 6.67438 | 37233 ft | 448 kts | 188° |
| 2026-04-26 13:12 | 49.06373 | 6.66288 | 37230 ft | 448 kts | 190° |
| 2026-04-26 13:13 | 49.00195 | 6.65042 | 37227 ft | 448 kts | 191° |
| 2026-04-26 13:13 | 48.93017 | 6.63597 | 37232 ft | 448 kts | 190° |
| 2026-04-26 13:14 | 48.87836 | 6.62563 | 37217 ft | 448 kts | 190° |
| 2026-04-26 13:14 | 48.81645 | 6.61341 | 37221 ft | 449 kts | 190° |
| 2026-04-26 13:15 | 48.75495 | 6.60137 | 37229 ft | 449 kts | 190° |
| 2026-04-26 13:15 | 48.69258 | 6.58912 | 37230 ft | 449 kts | 190° |
| 2026-04-26 13:16 | 48.63104 | 6.57707 | 37229 ft | 449 kts | 190° |
| 2026-04-26 13:16 | 48.56912 | 6.56486 | 37231 ft | 449 kts | 190° |
| 2026-04-26 13:17 | 48.47614 | 6.54671 | 37224 ft | 449 kts | 190° |
| 2026-04-26 13:18 | 48.38318 | 6.52867 | 37222 ft | 449 kts | 190° |
| 2026-04-26 13:19 | 48.29025 | 6.51076 | 37224 ft | 449 kts | 190° |
| 2026-04-26 13:19 | 48.22829 | 6.49871 | 37212 ft | 449 kts | 190° |
| 2026-04-26 13:20 | 48.16637 | 6.48671 | 37216 ft | 449 kts | 190° |
| 2026-04-26 13:20 | 48.10441 | 6.47489 | 37215 ft | 449 kts | 190° |
| 2026-04-26 13:21 | 48.04246 | 6.46313 | 37200 ft | 449 kts | 190° |
| 2026-04-26 13:21 | 47.98055 | 6.45132 | 37205 ft | 449 kts | 190° |
| 2026-04-26 13:22 | 47.91860 | 6.43943 | 37207 ft | 449 kts | 190° |
| 2026-04-26 13:22 | 47.85667 | 6.42755 | 37203 ft | 449 kts | 190° |
| 2026-04-26 13:23 | 47.79471 | 6.41590 | 37200 ft | 449 kts | 190° |
| 2026-04-26 13:23 | 47.73277 | 6.40428 | 37206 ft | 449 kts | 190° |
| 2026-04-26 13:24 | 47.67088 | 6.39258 | 37205 ft | 448 kts | 190° |
| 2026-04-26 13:24 | 47.60898 | 6.38081 | 37198 ft | 448 kts | 190° |
| 2026-04-26 13:25 | 47.54755 | 6.36920 | 37203 ft | 448 kts | 190° |
| 2026-04-26 13:25 | 47.48570 | 6.35767 | 37204 ft | 448 kts | 190° |
| 2026-04-26 13:26 | 47.42385 | 6.34615 | 37200 ft | 448 kts | 190° |
| 2026-04-26 13:26 | 47.36203 | 6.33461 | 37196 ft | 448 kts | 190° |
| 2026-04-26 13:27 | 47.30021 | 6.32306 | 37194 ft | 448 kts | 190° |
| 2026-04-26 13:27 | 47.23842 | 6.31149 | 37194 ft | 448 kts | 190° |
| 2026-04-26 13:28 | 47.17662 | 6.30000 | 37188 ft | 447 kts | 189° |
| 2026-04-26 13:28 | 47.11486 | 6.28863 | 37191 ft | 447 kts | 189° |
| 2026-04-26 13:29 | 47.05313 | 6.27726 | 37191 ft | 447 kts | 189° |
| 2026-04-26 13:29 | 46.99140 | 6.26589 | 37183 ft | 447 kts | 189° |
| 2026-04-26 13:30 | 46.92974 | 6.25462 | 37182 ft | 446 kts | 189° |
| 2026-04-26 13:30 | 46.86813 | 6.24341 | 37185 ft | 446 kts | 189° |
| 2026-04-26 13:31 | 46.80653 | 6.23209 | 37186 ft | 446 kts | 189° |
| 2026-04-26 13:31 | 46.74499 | 6.22078 | 37181 ft | 446 kts | 189° |
| 2026-04-26 13:32 | 46.68384 | 6.20976 | 37182 ft | 446 kts | 189° |
| 2026-04-26 13:32 | 46.62231 | 6.19860 | 37180 ft | 445 kts | 189° |
| 2026-04-26 13:33 | 46.56086 | 6.18737 | 37189 ft | 445 kts | 189° |
| 2026-04-26 13:33 | 46.49936 | 6.17619 | 37184 ft | 445 kts | 189° |
| 2026-04-26 13:34 | 46.43787 | 6.16519 | 37182 ft | 445 kts | 189° |
| 2026-04-26 13:34 | 46.37640 | 6.15416 | 37176 ft | 445 kts | 189° |
| 2026-04-26 13:35 | 46.31495 | 6.14316 | 37181 ft | 445 kts | 189° |
| 2026-04-26 13:35 | 46.25353 | 6.13212 | 37183 ft | 445 kts | 189° |
| 2026-04-26 13:36 | 46.19230 | 6.11959 | 37175 ft | 444 kts | 191° |
| 2026-04-26 13:36 | 46.13133 | 6.10547 | 37183 ft | 444 kts | 192° |
| 2026-04-26 13:37 | 46.07033 | 6.09139 | 37161 ft | 444 kts | 191° |
| 2026-04-26 13:37 | 46.00932 | 6.07777 | 37156 ft | 444 kts | 191° |
| 2026-04-26 13:38 | 45.94835 | 6.06434 | 37162 ft | 443 kts | 191° |
| 2026-04-26 13:38 | 45.88750 | 6.05090 | 37158 ft | 442 kts | 191° |
| 2026-04-26 13:39 | 45.82669 | 6.03754 | 37158 ft | 442 kts | 191° |
| 2026-04-26 13:39 | 45.76631 | 6.02425 | 37156 ft | 441 kts | 191° |
| 2026-04-26 13:40 | 45.70562 | 6.01089 | 37157 ft | 441 kts | 191° |
| 2026-04-26 13:40 | 45.64495 | 5.99754 | 37154 ft | 441 kts | 191° |
| 2026-04-26 13:41 | 45.58434 | 5.98419 | 37154 ft | 441 kts | 191° |
| 2026-04-26 13:41 | 45.52374 | 5.97092 | 37154 ft | 440 kts | 191° |
| 2026-04-26 13:42 | 45.46320 | 5.95742 | 37153 ft | 440 kts | 193° |
| 2026-04-26 13:42 | 45.40341 | 5.93967 | 37140 ft | 439 kts | 195° |
| 2026-04-26 13:43 | 45.34405 | 5.91959 | 37146 ft | 438 kts | 195° |
| 2026-04-26 13:43 | 45.28454 | 5.90019 | 37148 ft | 439 kts | 195° |
| 2026-04-26 13:44 | 45.22488 | 5.88177 | 37136 ft | 439 kts | 194° |
| 2026-04-26 13:44 | 45.16521 | 5.86351 | 37139 ft | 439 kts | 194° |
| 2026-04-26 13:45 | 45.10550 | 5.84509 | 37140 ft | 439 kts | 194° |
| 2026-04-26 13:45 | 45.04584 | 5.82670 | 37140 ft | 439 kts | 194° |
| 2026-04-26 13:46 | 44.98619 | 5.80831 | 37138 ft | 439 kts | 194° |
| 2026-04-26 13:46 | 44.92659 | 5.78985 | 37137 ft | 438 kts | 194° |
| 2026-04-26 13:47 | 44.86699 | 5.77158 | 37137 ft | 438 kts | 194° |
| 2026-04-26 13:47 | 44.80743 | 5.75333 | 37128 ft | 438 kts | 194° |
| 2026-04-26 13:48 | 44.74797 | 5.73512 | 37137 ft | 437 kts | 194° |
| 2026-04-26 13:48 | 44.68895 | 5.71718 | 37135 ft | 437 kts | 194° |
| 2026-04-26 13:49 | 44.62957 | 5.69911 | 37128 ft | 437 kts | 194° |
| 2026-04-26 13:49 | 44.57007 | 5.68101 | 37114 ft | 438 kts | 194° |
| 2026-04-26 13:50 | 44.51054 | 5.66293 | 37112 ft | 438 kts | 194° |
| 2026-04-26 13:50 | 44.45096 | 5.64486 | 37107 ft | 438 kts | 194° |
| 2026-04-26 13:51 | 44.39137 | 5.62685 | 37115 ft | 438 kts | 196° |
| 2026-04-26 13:51 | 44.33433 | 5.59835 | 37116 ft | 435 kts | 204° |
| 2026-04-26 13:52 | 44.27798 | 5.56747 | 37112 ft | 435 kts | 204° |
| 2026-04-26 13:52 | 44.22160 | 5.53671 | 37120 ft | 435 kts | 204° |
| 2026-04-26 13:53 | 44.16525 | 5.50605 | 37124 ft | 435 kts | 204° |
| 2026-04-26 13:53 | 44.10888 | 5.47544 | 37123 ft | 435 kts | 204° |
| 2026-04-26 13:54 | 44.05259 | 5.44479 | 37121 ft | 434 kts | 204° |
| 2026-04-26 13:54 | 43.99629 | 5.41420 | 37125 ft | 434 kts | 204° |
| 2026-04-26 13:55 | 43.92132 | 5.37361 | 37125 ft | 434 kts | 204° |
| 2026-04-26 13:56 | 43.82738 | 5.32281 | 37121 ft | 434 kts | 204° |
| 2026-04-26 13:56 | 43.77105 | 5.29254 | 37118 ft | 434 kts | 204° |
| 2026-04-26 13:57 | 43.71469 | 5.26222 | 37120 ft | 434 kts | 204° |
| 2026-04-26 13:57 | 43.65836 | 5.23194 | 37107 ft | 434 kts | 204° |
| 2026-04-26 13:58 | 43.60205 | 5.20173 | 37119 ft | 434 kts | 204° |
| 2026-04-26 13:58 | 43.54567 | 5.17168 | 37150 ft | 434 kts | 204° |
| 2026-04-26 13:59 | 43.48970 | 5.14192 | 37134 ft | 434 kts | 204° |
| 2026-04-26 13:59 | 43.43335 | 5.11194 | 37140 ft | 434 kts | 204° |
| 2026-04-26 14:00 | 43.35349 | 5.05572 | 37139 ft | 429 kts | 217° |
| 2026-04-26 14:00 | 43.32893 | 5.03245 | 37150 ft | 429 kts | 217° |
| 2026-04-26 14:01 | 43.27964 | 4.98614 | 37143 ft | 429 kts | 217° |
| 2026-04-26 14:01 | 43.23033 | 4.93984 | 37143 ft | 429 kts | 217° |
| 2026-04-26 14:02 | 43.18099 | 4.89356 | 37142 ft | 430 kts | 217° |
| 2026-04-26 14:02 | 43.13080 | 4.84917 | 37137 ft | 432 kts | 207° |
| 2026-04-26 14:03 | 43.08468 | 4.82251 | 37131 ft | 433 kts | 205° |
| 2026-04-26 14:03 | 43.02895 | 4.79106 | 37124 ft | 434 kts | 205° |
| 2026-04-26 14:04 | 42.97313 | 4.75972 | 37141 ft | 434 kts | 205° |
| 2026-04-26 14:04 | 42.91728 | 4.72839 | 37140 ft | 434 kts | 205° |
| 2026-04-26 14:05 | 42.86145 | 4.69700 | 37142 ft | 434 kts | 205° |
| 2026-04-26 14:05 | 42.80560 | 4.66565 | 37142 ft | 434 kts | 205° |
| 2026-04-26 14:06 | 42.74970 | 4.63438 | 37140 ft | 434 kts | 205° |
| 2026-04-26 14:06 | 42.69379 | 4.60317 | 37140 ft | 434 kts | 205° |
| 2026-04-26 14:07 | 42.63781 | 4.57207 | 37140 ft | 434 kts | 205° |
| 2026-04-26 14:07 | 42.58190 | 4.54084 | 37142 ft | 435 kts | 205° |
| 2026-04-26 14:08 | 42.52596 | 4.50975 | 37143 ft | 435 kts | 205° |
| 2026-04-26 14:08 | 42.46997 | 4.47872 | 37134 ft | 435 kts | 205° |
| 2026-04-26 14:09 | 42.41397 | 4.44774 | 37139 ft | 435 kts | 204° |
| 2026-04-26 14:09 | 42.35796 | 4.41685 | 37146 ft | 435 kts | 204° |
| 2026-04-26 14:10 | 42.30197 | 4.38592 | 37135 ft | 435 kts | 204° |
| 2026-04-26 14:10 | 42.24594 | 4.35518 | 37138 ft | 435 kts | 204° |
| 2026-04-26 14:11 | 42.16183 | 4.30907 | 37146 ft | 435 kts | 204° |
| 2026-04-26 14:11 | 42.10577 | 4.27832 | 37140 ft | 435 kts | 204° |
| 2026-04-26 14:12 | 42.04970 | 4.24773 | 37144 ft | 435 kts | 204° |
| 2026-04-26 14:12 | 41.99395 | 4.21738 | 37146 ft | 435 kts | 204° |
| 2026-04-26 14:13 | 41.90975 | 4.17163 | 37137 ft | 435 kts | 204° |
| 2026-04-26 14:14 | 41.85360 | 4.14117 | 37144 ft | 435 kts | 204° |
| 2026-04-26 14:14 | 41.79745 | 4.11077 | 37146 ft | 435 kts | 204° |
| 2026-04-26 14:15 | 41.74125 | 4.08043 | 37151 ft | 435 kts | 204° |
| 2026-04-26 14:15 | 41.68509 | 4.05010 | 37147 ft | 435 kts | 204° |
| 2026-04-26 14:16 | 41.62891 | 4.01982 | 37153 ft | 435 kts | 204° |
| 2026-04-26 14:16 | 41.57270 | 3.98964 | 37160 ft | 436 kts | 203° |
| 2026-04-26 14:17 | 41.51635 | 3.95983 | 37161 ft | 436 kts | 202° |
| 2026-04-26 14:17 | 41.45948 | 3.93159 | 37158 ft | 436 kts | 201° |
| 2026-04-26 14:18 | 41.40249 | 3.90381 | 37166 ft | 436 kts | 201° |
| 2026-04-26 14:18 | 41.34562 | 3.87581 | 37169 ft | 435 kts | 202° |
| 2026-04-26 14:19 | 41.28888 | 3.84782 | 37166 ft | 435 kts | 202° |
| 2026-04-26 14:19 | 41.23212 | 3.81979 | 37165 ft | 435 kts | 201° |
| 2026-04-26 14:20 | 41.17539 | 3.79175 | 37139 ft | 435 kts | 201° |
| 2026-04-26 14:20 | 41.14683 | 3.77766 | 36240 ft | 442 kts | 201° |
| 2026-04-26 14:20 | 41.11773 | 3.76332 | 35083 ft | 450 kts | 201° |
| 2026-04-26 14:20 | 41.08819 | 3.74882 | 34027 ft | 455 kts | 201° |
| 2026-04-26 14:21 | 41.05841 | 3.73429 | 32957 ft | 456 kts | 200° |
| 2026-04-26 14:21 | 41.02872 | 3.71988 | 32263 ft | 451 kts | 200° |
| 2026-04-26 14:21 | 40.99944 | 3.70568 | 31658 ft | 445 kts | 200° |
| 2026-04-26 14:21 | 40.97052 | 3.69158 | 31051 ft | 440 kts | 201° |
| 2026-04-26 14:22 | 40.94191 | 3.67761 | 30457 ft | 436 kts | 201° |
| 2026-04-26 14:22 | 40.91360 | 3.66377 | 29805 ft | 432 kts | 201° |
| 2026-04-26 14:22 | 40.88556 | 3.65008 | 29237 ft | 427 kts | 201° |
| 2026-04-26 14:22 | 40.85790 | 3.63658 | 28657 ft | 422 kts | 200° |
| 2026-04-26 14:23 | 40.83053 | 3.62325 | 28108 ft | 417 kts | 200° |
| 2026-04-26 14:23 | 40.80346 | 3.61008 | 27552 ft | 413 kts | 200° |
| 2026-04-26 14:23 | 40.77666 | 3.59707 | 27021 ft | 409 kts | 200° |
| 2026-04-26 14:23 | 40.75011 | 3.58418 | 26483 ft | 405 kts | 200° |
| 2026-04-26 14:24 | 40.72377 | 3.57141 | 25980 ft | 401 kts | 200° |
| 2026-04-26 14:24 | 40.69769 | 3.55875 | 25465 ft | 398 kts | 200° |
| 2026-04-26 14:24 | 40.67177 | 3.54621 | 24994 ft | 395 kts | 200° |
| 2026-04-26 14:24 | 40.64604 | 3.53379 | 24501 ft | 393 kts | 200° |
| 2026-04-26 14:25 | 40.62049 | 3.52149 | 24020 ft | 390 kts | 200° |
| 2026-04-26 14:25 | 40.59506 | 3.50924 | 23501 ft | 388 kts | 200° |
| 2026-04-26 14:25 | 40.56986 | 3.49707 | 23003 ft | 384 kts | 200° |
| 2026-04-26 14:25 | 40.54488 | 3.48504 | 22537 ft | 380 kts | 200° |
| 2026-04-26 14:26 | 40.52016 | 3.47314 | 22043 ft | 377 kts | 199° |
| 2026-04-26 14:26 | 40.49563 | 3.46132 | 21574 ft | 374 kts | 200° |
| 2026-04-26 14:26 | 40.47132 | 3.44960 | 21093 ft | 371 kts | 200° |
| 2026-04-26 14:26 | 40.44714 | 3.43798 | 20612 ft | 369 kts | 199° |
| 2026-04-26 14:27 | 40.42309 | 3.42645 | 20121 ft | 367 kts | 199° |
| 2026-04-26 14:27 | 40.39917 | 3.41499 | 19629 ft | 366 kts | 199° |
| 2026-04-26 14:27 | 40.37490 | 3.40690 | 19449 ft | 353 kts | 184° |
| 2026-04-26 14:27 | 40.35053 | 3.40582 | 19374 ft | 356 kts | 183° |
| 2026-04-26 14:28 | 40.32597 | 3.39885 | 18739 ft | 368 kts | 197° |
| 2026-04-26 14:28 | 40.30158 | 3.38697 | 17852 ft | 378 kts | 201° |
| 2026-04-26 14:28 | 40.27737 | 3.37342 | 17211 ft | 378 kts | 203° |
| 2026-04-26 14:28 | 40.25338 | 3.35965 | 16725 ft | 374 kts | 202° |
| 2026-04-26 14:29 | 40.22984 | 3.34656 | 16248 ft | 371 kts | 201° |
| 2026-04-26 14:29 | 40.20601 | 3.33391 | 15758 ft | 368 kts | 200° |
| 2026-04-26 14:29 | 40.18188 | 3.32162 | 15273 ft | 366 kts | 200° |
| 2026-04-26 14:29 | 40.15850 | 3.30997 | 14795 ft | 363 kts | 199° |
| 2026-04-26 14:30 | 40.13491 | 3.29833 | 14326 ft | 362 kts | 199° |
| 2026-04-26 14:30 | 40.11109 | 3.28664 | 13815 ft | 360 kts | 199° |
| 2026-04-26 14:30 | 40.08807 | 3.27533 | 13319 ft | 357 kts | 199° |
| 2026-04-26 14:30 | 40.06484 | 3.26385 | 12681 ft | 358 kts | 199° |
| 2026-04-26 14:31 | 40.04167 | 3.25236 | 12182 ft | 354 kts | 200° |
| 2026-04-26 14:31 | 40.01875 | 3.24095 | 11689 ft | 351 kts | 200° |
| 2026-04-26 14:31 | 39.99606 | 3.22963 | 11199 ft | 347 kts | 200° |
| 2026-04-26 14:31 | 39.97360 | 3.21845 | 10711 ft | 344 kts | 200° |
| 2026-04-26 14:32 | 39.95132 | 3.20740 | 10269 ft | 340 kts | 200° |
| 2026-04-26 14:32 | 39.92971 | 3.19667 | 10137 ft | 325 kts | 200° |
| 2026-04-26 14:32 | 39.90902 | 3.18641 | 10021 ft | 312 kts | 200° |
| 2026-04-26 14:32 | 39.88913 | 3.17654 | 9762 ft | 303 kts | 200° |
| 2026-04-26 14:33 | 39.86941 | 3.16681 | 9314 ft | 302 kts | 199° |
| 2026-04-26 14:33 | 39.84978 | 3.15713 | 8894 ft | 301 kts | 200° |
| 2026-04-26 14:33 | 39.83024 | 3.14750 | 8479 ft | 299 kts | 199° |
| 2026-04-26 14:33 | 39.81088 | 3.13796 | 8070 ft | 297 kts | 200° |
| 2026-04-26 14:34 | 39.79165 | 3.12848 | 7674 ft | 294 kts | 199° |
| 2026-04-26 14:34 | 39.77258 | 3.11910 | 7279 ft | 293 kts | 199° |
| 2026-04-26 14:34 | 39.75390 | 3.10981 | 6847 ft | 280 kts | 199° |
| 2026-04-26 14:34 | 39.73578 | 3.10089 | 6473 ft | 277 kts | 199° |
| 2026-04-26 14:35 | 39.71793 | 3.09141 | 5908 ft | 282 kts | 208° |
| 2026-04-26 14:35 | 39.70316 | 3.07512 | 5486 ft | 273 kts | 231° |
| 2026-04-26 14:35 | 39.69313 | 3.05457 | 5162 ft | 267 kts | 238° |
| 2026-04-26 14:35 | 39.68347 | 3.03398 | 4768 ft | 267 kts | 237° |
| 2026-04-26 14:36 | 39.67379 | 3.01343 | 4360 ft | 266 kts | 237° |
| 2026-04-26 14:36 | 39.66425 | 2.99304 | 4034 ft | 262 kts | 238° |
| 2026-04-26 14:36 | 39.65482 | 2.97298 | 3742 ft | 259 kts | 238° |
| 2026-04-26 14:36 | 39.64547 | 2.95309 | 3352 ft | 253 kts | 238° |
| 2026-04-26 14:37 | 39.63675 | 2.93448 | 2977 ft | 238 kts | 238° |
| 2026-04-26 14:37 | 39.62842 | 2.91683 | 2718 ft | 223 kts | 237° |
| 2026-04-26 14:37 | 39.62056 | 2.90006 | 2427 ft | 210 kts | 237° |
| 2026-04-26 14:37 | 39.61324 | 2.88439 | 2224 ft | 197 kts | 237° |
| 2026-04-26 14:38 | 39.60633 | 2.86967 | 1895 ft | 185 kts | 237° |
| 2026-04-26 14:38 | 39.59994 | 2.85610 | 1667 ft | 169 kts | 236° |
| 2026-04-26 14:38 | 39.59412 | 2.84378 | 1469 ft | 151 kts | 236° |
| 2026-04-26 14:38 | 39.59050 | 2.83608 | 1302 ft | 145 kts | 236° |
| 2026-04-26 14:39 | 39.58387 | 2.82196 | 1099 ft | 134 kts | 234° |
| 2026-04-26 14:39 | 39.57905 | 2.81175 | 967 ft | 131 kts | 235° |
| 2026-04-26 14:39 | 39.57423 | 2.80159 | 775 ft | 129 kts | 236° |
| 2026-04-26 14:39 | 39.56957 | 2.79171 | 590 ft | 127 kts | 238° |
| 2026-04-26 14:40 | 39.56498 | 2.78196 | 373 ft | 126 kts | 239° |
| 2026-04-26 14:40 | 39.56047 | 2.77235 | 254 ft | 125 kts | 238° |
| 2026-04-26 14:40 | 39.55600 | 2.76279 | 99 ft | 123 kts | 238° |
| 2026-04-26 14:40 | 39.55165 | 2.75364 | 41 ft | 109 kts | 238° |
| 2026-04-26 14:41 | 39.54849 | 2.74697 | 38 ft | 62 kts | 239° |
| 2026-04-26 14:41 | 39.54683 | 2.74346 | 38 ft | 39 kts | 238° |
| 2026-04-26 14:41 | 39.54566 | 2.74060 | 38 ft | 33 kts | 255° |
| 2026-04-26 14:41 | 39.54555 | 2.73838 | 38 ft | 16 kts | 277° |
| 2026-04-26 14:42 | 39.54556 | 2.73790 | 38 ft | 0 kts | 269° |
| 2026-04-26 14:44 | 39.54556 | 2.73786 | 38 ft | 3 kts | 270° |
| 2026-04-26 14:44 | 39.54610 | 2.73763 | 38 ft | 17 kts | 27° |
| 2026-04-26 14:44 | 39.54702 | 2.73940 | 38 ft | 28 kts | 58° |
| 2026-04-26 14:44 | 39.54810 | 2.74123 | 38 ft | 19 kts | 14° |
| 2026-04-26 14:45 | 39.54925 | 2.74049 | 36 ft | 22 kts | 329° |
| 2026-04-26 14:45 | 39.55019 | 2.73976 | 38 ft | 25 kts | 328° |
| 2026-04-26 14:45 | 39.55181 | 2.73823 | 38 ft | 12 kts | 270° |
| 2026-04-26 14:45 | 39.55178 | 2.73713 | 38 ft | 14 kts | 269° |
| 2026-04-26 14:46 | 39.55132 | 2.73596 | 37 ft | 16 kts | 238° |
| 2026-04-26 14:46 | 39.55070 | 2.73465 | 38 ft | 17 kts | 239° |
| 2026-04-26 14:46 | 39.55028 | 2.73431 | 38 ft | 6 kts | 173° |
| 2026-04-26 14:46 | 39.55004 | 2.73439 | 38 ft | 2 kts | 164° |
| 2026-04-26 14:47 | 39.54999 | 2.73441 | 38 ft | 0 kts | 164° |